In Rescue
 
Open Full Screen Window  High Contrast Mode
January 22, 2020 4:46 PM CST
Weather Information
Wind Direction
  ---
Wind Speed
  00 kt (0 mph)
Wind Gust
  00 kt (0 mph)
Altimeter
29.87 in
Visibility
10 SM
Temperature
-04° C
25° F
Dewpoint
-07° C
19° F
Humidity
80%
1hr Rain Fall
00.00 in.
24hr Rain Fall
00.00 in.
Sky Condition
Overcast @ 12,000 ft
VFR

METAR KCDD 222246Z AUTO 00000KT 10SM OVC120 M04/M07 A2987 RMK AO2

FAA Disclaimer: The data displayed is for advisory purposes only and is not to be used for flight planning or operations.